Latest Weather Observations for Coles Point

IDS60801

Issued at 7:05 am CDT Monday 24 November 2014 (issued every 30 minutes, with the page automatically refreshed every 10 minutes)

About weather observations | Map of weather stations | Latest weather observations for SA | Other Formats
Station Details ID: 018191 Name: COLES POINT Lat: -34.37 Lon: 135.37 Height: 28.0 m
Data from the previous 72 hours. | See also: Recent months at Coles Point
Date/Time
CDT
Temp
°C
App
Temp
°C
Dew
Point
Rel
Hum
%
Delta-T
°C
Wind Press
QNH
hPa
Press
MSL
hPa
Rain
since 9 am
mm
Dir
 
Spd
km/h
Gust
km/h
Spd
kts
Gust
kts
24/07:00am 16.6 13.9 12.8 78 2.1 SSW 19 26 10 14 1013.5 1013.5 0.0
24/06:30am 16.4 13.1 12.8 79 2.0 SSW 22 32 12 17 1013.3 1013.3 0.0
24/06:00am 16.5 13.4 13.4 82 1.7 SW 22 30 12 16 1012.7 1012.7 0.0
24/05:30am 16.2 14.4 13.3 83 1.6 SSW 15 19 8 10 1012.3 1012.3 0.0
24/05:00am 16.7 14.1 13.8 83 1.6 SSW 20 30 11 16 1012.0 1012.0 0.0
24/04:30am 16.9 13.4 13.4 80 2.0 SSW 24 32 13 17 1011.6 1011.6 0.0
24/04:00am 16.7 13.8 13.0 79 2.1 SSW 20 28 11 15 1011.1 1011.1 0.0
24/03:30am 16.9 14.0 12.8 77 2.3 S 20 30 11 16 1010.7 1010.7 0.0
24/03:00am 16.6 13.9 12.8 78 2.1 S 19 28 10 15 1010.7 1010.7 0.0
24/02:30am 16.8 14.2 13.1 79 2.1 S 19 26 10 14 1010.7 1010.7 0.0
24/02:00am 16.6 15.2 13.3 81 1.9 S 13 22 7 12 1010.5 1010.5 0.0
24/01:30am 16.4 15.2 12.9 80 1.9 S 11 22 6 12 1010.6 1010.6 0.0
24/01:00am 16.5 15.1 12.3 76 2.3 S 11 17 6 9 1010.8 1010.8 0.0
24/12:30am 16.9 15.0 11.8 72 2.8 S 13 17 7 9 1011.0 1011.0 0.0
24/12:00am 16.9 14.9 11.4 70 3.0 SSE 13 19 7 10 1010.7 1010.7 0.0
 
Date/Time
CDT
Temp
°C
App
Temp
°C
Dew
Point
Rel
Hum
%
Delta-T
°C
Wind Press
QNH
hPa
Press
MSL
hPa
Rain
since 9 am
mm
Dir
 
Spd
km/h
Gust
km/h
Spd
kts
Gust
kts
23/11:30pm 17.1 15.0 11.2 68 3.2 S 13 19 7 10 1011.1 1011.1 0.0
23/11:00pm 17.3 15.5 10.9 66 3.4 S 11 19 6 10 1010.8 1010.8 0.0
23/10:30pm 17.5 14.3 11.3 67 3.4 SSE 19 26 10 14 1010.0 1010.0 0.0
23/10:00pm 18.0 14.1 10.9 63 3.8 SSE 22 30 12 16 1009.8 1009.8 0.0
23/09:30pm 18.4 14.9 10.3 59 4.3 SSE 19 28 10 15 1009.3 1009.3 0.0
23/09:00pm 18.9 15.3 10.7 59 4.4 SSE 20 28 11 15 1009.0 1009.0 0.0
23/08:30pm 19.6 15.9 12.8 65 3.8 SSE 24 33 13 18 1008.8 1008.8 0.0
23/08:00pm 20.0 15.5 13.9 68 3.5 S 30 41 16 22 1008.3 1008.3 0.0
23/07:30pm 20.8 16.7 13.7 64 4.1 S 28 35 15 19 1008.3 1008.3 0.0
23/07:00pm 21.4 16.1 12.5 57 5.0 S 32 41 17 22 1008.2 1008.2 0.0
23/06:30pm 22.9 17.7 12.8 53 5.8 S 32 39 17 21 1008.2 1008.2 0.0
23/06:00pm 23.8 18.1 11.2 45 7.1 S 32 41 17 22 1008.2 1008.2 0.0
23/05:30pm 24.7 19.5 10.2 40 8.0 S 28 39 15 21 1008.2 1008.2 0.0
23/05:00pm 25.1 20.1 10.9 41 8.0 SSW 28 35 15 19 1008.3 1008.3 0.0
23/04:30pm 25.8 20.0 7.9 32 9.6 S 28 37 15 20 1008.2 1008.2 0.0
23/04:00pm 27.4 22.3 7.8 29 10.5 S 24 32 13 17 1008.7 1008.7 0.0
23/03:30pm 24.1 22.9 13.9 53 6.0 SW 13 17 7 9 1009.2 1009.2 0.0
23/03:00pm 23.4 21.9 13.0 52 6.0 SW 13 20 7 11 1010.1 1010.1 0.0
23/02:30pm 22.5 20.9 13.8 58 5.1 WSW 15 19 8 10 1010.4 1010.4 0.0
23/02:00pm 22.7 20.6 13.7 56 5.2 SW 17 22 9 12 1010.7 1010.7 0.0
23/01:30pm 22.9 20.2 12.8 53 5.8 SW 19 22 10 12 1011.4 1011.4 0.0
23/01:00pm 23.0 20.6 11.4 48 6.5 WSW 15 19 8 10 1011.9 1011.9 0.0
23/12:30pm 24.0 20.0 8.4 37 8.3 SW 19 22 10 12 1011.1 1011.1 0.0
23/12:00pm 22.3 19.1 9.8 45 6.8 SW 17 20 9 11 1011.5 1011.5 0.0
23/11:30am 20.5 17.9 12.0 58 4.8 SW 17 20 9 11 1011.8 1011.8 0.0
23/11:00am 20.7 18.8 11.9 57 4.9 SW 13 15 7 8 1011.9 1011.9 0.0
23/10:30am 19.9 19.1 12.9 64 4.0 SSW 9 13 5 7 1012.8 1012.8 0.0
23/10:00am 20.5 19.8 12.0 58 4.7 W 7 13 4 7 1013.0 1013.0 0.0
23/09:30am 19.6 19.3 11.6 60 4.4 N 4 7 2 4 1012.9 1012.9 0.0
23/09:00am 18.3 17.4 12.5 69 3.2 NNE 9 13 5 7 1012.5 1012.5 0.0
23/08:30am 17.3 16.5 12.8 75 2.5 NE 9 13 5 7 1012.6 1012.6 0.0
23/08:00am 16.2 15.5 14.2 88 1.1 NE 11 15 6 8 1012.4 1012.4 0.0
23/07:30am 14.7 13.8 13.7 94 0.6 NE 11 13 6 7 1012.0 1012.0 0.0
23/07:00am 13.6 12.5 13.0 96 0.3 NE 11 13 6 7 1011.7 1011.7 0.0
23/06:30am 13.1 11.4 12.5 96 0.3 NNE 13 19 7 10 1011.8 1011.8 0.0
23/06:00am 12.6 10.8 12.0 96 0.3 NNE 13 15 7 8 1011.0 1011.0 0.0
23/05:30am 11.1 9.5 10.3 95 0.4 NE 9 11 5 6 1010.8 1010.8 0.0
23/05:00am 11.5 9.7 10.7 95 0.4 NE 11 11 6 6 1011.3 1011.3 0.0
23/04:30am 11.5 10.0 10.6 94 0.5 NE 9 9 5 5 1011.3 1011.3 0.0
23/04:00am 12.7 11.6 11.8 94 0.5 NE 9 11 5 6 1011.7 1011.7 0.0
23/03:30am 12.7 11.2 11.8 94 0.5 NE 11 13 6 7 1011.9 1011.9 0.0
23/03:00am 11.8 10.0 10.7 93 0.6 NE 11 13 6 7 1012.1 1012.1 0.0
23/02:30am 12.0 10.5 10.7 92 0.7 ENE 9 11 5 6 1012.3 1012.3 0.0
23/02:00am 12.3 11.3 10.9 91 0.7 NE 7 9 4 5 1012.6 1012.6 0.0
23/01:30am 12.9 12.2 11.3 90 0.8 NE 6 7 3 4 1012.9 1012.9 0.0
23/01:00am 12.8 11.8 11.0 89 0.9 NE 7 9 4 5 1013.0 1013.0 0.0
23/12:30am 12.9 11.8 10.8 87 1.1 NE 7 7 4 4 1013.3 1013.3 0.0
23/12:00am 13.6 12.9 11.5 87 1.1 ENE 6 7 3 4 1013.5 1013.5 0.0
 
Date/Time
CDT
Temp
°C
App
Temp
°C
Dew
Point
Rel
Hum
%
Delta-T
°C
Wind Press
QNH
hPa
Press
MSL
hPa
Rain
since 9 am
mm
Dir
 
Spd
km/h
Gust
km/h
Spd
kts
Gust
kts
22/11:30pm 14.0 13.2 11.7 86 1.2 ENE 7 9 4 5 1013.6 1013.6 0.0
22/11:00pm 15.3 14.9 12.4 83 1.6 S 6 6 3 3 1013.6 1013.6 0.0
22/10:30pm 16.1 15.3 12.8 81 1.8 S 9 15 5 8 1013.3 1013.3 0.0
22/10:00pm 16.3 15.2 13.0 81 1.8 S 11 17 6 9 1013.0 1013.0 0.0
22/09:30pm 16.8 14.4 12.7 77 2.3 SSW 17 22 9 12 1012.9 1012.9 0.0
22/09:00pm 16.7 15.0 12.5 76 2.3 SSW 13 17 7 9 1012.5 1012.5 0.0
22/08:30pm 17.2 14.3 12.3 73 2.7 SSW 19 24 10 13 1011.9 1011.9 0.0
22/08:00pm 17.6 15.2 12.5 72 2.8 SSW 17 24 9 13 1011.7 1011.7 0.0
22/07:30pm 18.2 14.9 12.9 71 3.0 SSW 22 28 12 15 1011.2 1011.2 0.0
22/07:00pm 18.8 15.7 13.4 71 3.1 SSW 22 30 12 16 1010.7 1010.7 0.0
22/06:30pm 19.5 15.4 12.8 65 3.8 SSW 26 33 14 18 1010.2 1010.2 0.0
22/06:00pm 20.4 16.0 11.6 57 4.9 SSW 26 33 14 18 1009.9 1009.9 0.0
22/05:30pm 21.1 16.9 12.3 57 5.0 SSW 26 33 14 18 1009.6 1009.6 0.0
22/05:00pm 20.9 16.7 12.3 58 4.8 SSW 26 32 14 17 1009.3 1009.3 0.0
22/04:30pm 21.5 18.3 14.2 63 4.3 SSW 24 30 13 16 1009.4 1009.4 0.0
22/04:00pm 20.9 17.4 14.5 67 3.7 SSW 26 30 14 16 1009.2 1009.2 0.0
22/03:30pm 21.6 18.7 15.2 67 3.8 SW 24 30 13 16 1009.1 1009.1 0.0
22/03:00pm 21.9 20.3 16.0 69 3.6 WSW 19 24 10 13 1009.1 1009.1 0.0
22/02:30pm 21.9 19.7 16.0 69 3.6 WSW 22 28 12 15 1009.0 1009.0 0.0
22/02:00pm 22.0 20.2 15.6 67 3.8 W 19 26 10 14 1009.0 1009.0 0.0
22/01:30pm 22.2 20.8 14.6 62 4.5 W 15 22 8 12 1008.8 1008.8 0.0
22/01:00pm 22.5 21.2 14.9 62 4.5 WNW 15 20 8 11 1008.6 1008.6 0.0
22/12:30pm 22.2 22.0 14.6 62 4.5 W 9 13 5 7 1008.5 1008.5 0.0
22/12:00pm 20.5 20.3 14.8 70 3.4 W 9 13 5 7 1008.5 1008.5 0.0
22/11:30am 21.0 20.5 13.7 63 4.2 SW 9 15 5 8 1008.2 1008.2 0.0
22/11:00am 20.0 19.8 14.8 72 3.0 SW 9 13 5 7 1008.0 1008.0 0.0
22/10:30am 20.0 19.8 15.8 77 2.5 WSW 11 15 6 8 1007.8 1007.8 0.0
22/10:00am 19.4 19.0 15.3 77 2.4 WSW 11 19 6 10 1007.8 1007.8 0.0
22/09:30am 19.5 19.0 16.0 80 2.1 SW 13 17 7 9 1007.9 1007.9 0.0
22/09:00am 21.5 22.9 16.5 73 3.0 ESE 4 15 2 8 1007.7 1007.7 2.6
22/08:30am 21.1 22.2 17.1 78 2.5 N 7 13 4 7 1007.7 1007.7 2.6
22/08:00am 18.2 16.6 15.1 82 1.8 NNE 17 20 9 11 1006.8 1006.8 2.6
22/07:30am 18.2 17.0 15.1 82 1.8 NE 15 17 8 9 1006.3 1006.3 2.6
22/07:00am 17.1 16.1 14.7 86 1.4 NE 13 19 7 10 1005.9 1005.8 2.6
22/06:30am 16.9 15.1 14.5 86 1.4 NE 17 19 9 10 1005.9 1005.8 2.6
22/06:00am 17.4 17.6 14.7 84 1.6 E 7 13 4 7 1006.8 1006.8 1.6
22/05:30am 18.6 18.6 13.7 73 2.8 WSW 6 13 3 7 1006.3 1006.3 1.4
22/05:20am 18.4 17.7 13.3 72 2.9 SSW 9 13 5 7 1007.0 1007.0 0.0
22/05:00am 18.8 17.7 13.0 69 3.3 SE 11 17 6 9 1004.8 1004.7 0.0
22/04:30am 19.6 18.7 12.6 64 3.9 SSW 9 13 5 7 1005.2 1005.1 0.0
22/04:00am 18.6 17.5 11.9 65 3.7 SE 9 13 5 7 1005.0 1004.9 0.0
22/03:30am 19.5 18.5 11.0 58 4.7 W 7 9 4 5 1005.6 1005.5 0.0
22/03:00am 20.6 16.3 6.9 41 7.0 NNE 19 26 10 14 1005.4 1005.3 0.0
22/02:30am 20.1 17.0 8.8 48 6.0 ENE 15 19 8 10 1004.7 1004.6 0.0
22/02:00am 20.4 16.9 7.4 43 6.7 ENE 15 17 8 9 1004.8 1004.7 0.0
22/01:30am 21.1 16.9 5.9 37 7.6 NE 17 22 9 12 1004.8 1004.7 0.0
22/01:00am 20.9 16.2 6.1 38 7.4 NNE 20 24 11 13 1004.7 1004.6 0.0
22/12:30am 21.0 16.5 6.9 40 7.2 NNE 20 26 11 14 1005.0 1004.9 0.0
22/12:00am 21.2 16.4 7.4 41 7.1 NE 22 24 12 13 1005.6 1005.5 0.0
 
Date/Time
CDT
Temp
°C
App
Temp
°C
Dew
Point
Rel
Hum
%
Delta-T
°C
Wind Press
QNH
hPa
Press
MSL
hPa
Rain
since 9 am
mm
Dir
 
Spd
km/h
Gust
km/h
Spd
kts
Gust
kts
21/11:30pm 20.7 16.7 8.4 45 6.5 NE 19 22 10 12 1005.8 1005.7 0.0
21/11:00pm 21.3 17.3 8.2 43 6.9 NE 19 20 10 11 1006.6 1006.6 0.0
21/10:30pm 21.9 17.8 7.7 40 7.4 NE 19 24 10 13 1006.9 1006.9 0.0
21/10:00pm 21.8 17.9 7.2 39 7.5 NE 17 19 9 10 1007.5 1007.5 0.0
21/09:30pm 22.9 19.1 7.4 37 8.1 NE 17 20 9 11 1007.6 1007.6 0.0
21/09:00pm 23.8 20.2 6.6 33 8.9 NE 15 20 8 11 1007.9 1007.9 0.0
21/08:30pm 23.0 20.7 7.5 37 8.1 ENE 9 11 5 6 1007.7 1007.7 0.0
21/08:00pm 25.5 23.0 8.1 33 9.3 E 11 13 6 7 1007.3 1007.3 0.0
21/07:30pm 26.7 25.2 10.4 36 9.2 SE 9 15 5 8 1007.2 1007.2 0.0
21/07:00pm 25.6 23.6 11.4 41 8.1 S 13 17 7 9 1007.3 1007.3 0.0
21/06:30pm 24.9 23.9 13.5 49 6.7 SW 11 15 6 8 1007.3 1007.3 0.0
21/06:00pm 26.6 24.2 8.6 32 9.8 SW 11 13 6 7 1007.4 1007.4 0.0
21/05:30pm 25.2 23.8 9.5 37 8.6 SW 7 9 4 5 1007.6 1007.6 0.0
21/05:00pm 24.3 23.0 11.3 44 7.3 SW 9 11 5 6 1007.8 1007.8 0.0
21/04:30pm 25.3 23.4 9.2 36 8.8 WSW 9 13 5 7 1008.2 1008.2 0.0
21/04:00pm 23.6 22.4 11.6 47 6.8 SW 9 11 5 6 1008.7 1008.7 0.0
21/03:30pm 24.6 23.9 11.9 45 7.2 WSW 7 9 4 5 1009.1 1009.1 0.0
21/03:00pm 22.7 21.9 11.7 49 6.2 WSW 7 11 4 6 1009.5 1009.5 0.0
21/02:30pm 21.9 20.9 12.2 54 5.5 WSW 9 11 5 6 1009.9 1009.9 0.0
21/02:00pm 22.0 20.7 11.4 51 5.9 WSW 9 13 5 7 1010.4 1010.4 0.0
21/01:30pm 23.4 20.4 7.9 37 8.2 W 13 17 7 9 1010.9 1010.9 0.0
21/01:00pm 23.7 19.8 6.9 34 8.7 WNW 17 20 9 11 1011.1 1011.1 0.0
21/12:30pm 22.8 19.0 7.4 37 8.0 NW 17 20 9 11 1011.4 1011.4 0.0
21/12:00pm 21.8 18.7 9.0 44 6.8 NW 15 19 8 10 1011.9 1011.9 0.0
21/11:30am 21.2 17.7 8.8 45 6.6 NW 17 20 9 11 1012.1 1012.1 0.0
21/11:00am 20.1 17.2 11.1 56 4.9 NNW 17 22 9 12 1012.6 1012.6 0.0
21/10:30am 18.6 15.0 10.4 59 4.4 NNW 20 26 11 14 1012.7 1012.7 0.0
21/10:00am 18.8 15.7 10.4 58 4.5 NW 17 20 9 11 1012.8 1012.8 0.0
21/09:30am 18.2 15.6 10.6 61 4.1 NW 15 19 8 10 1012.8 1012.8 0.0
21/09:00am 16.9 15.2 11.2 69 3.1 NE 11 13 6 7 1012.8 1012.8 0.2
21/08:30am 15.5 13.7 10.9 74 2.4 NE 11 15 6 8 1012.8 1012.8 0.2
21/08:00am 13.3 11.4 10.5 83 1.5 NE 11 15 6 8 1012.6 1012.6 0.2
21/07:30am 11.8 9.8 10.0 89 0.9 NE 11 15 6 8 1012.5 1012.5 0.2

Other Formats:

Comma delimited format used in spreadsheet applications
http://www.bom.gov.au/fwo/IDS60801/IDS60801.94658.axf

JavaScript Object Notation format (JSON) in row-major order
http://www.bom.gov.au/fwo/IDS60801/IDS60801.94658.json